sensor_id;sensor_type;location;lat;lon;timestamp;temperature;humidity
68912;SHT31;55953;51.650;-0.522;2023-04-01T00:00:53;9.94;89.49
68912;SHT31;55953;51.650;-0.522;2023-04-01T00:03:22;9.93;89.50
68912;SHT31;55953;51.650;-0.522;2023-04-01T00:05:51;9.92;89.53
68912;SHT31;55953;51.650;-0.522;2023-04-01T00:08:21;9.92;89.51
68912;SHT31;55953;51.650;-0.522;2023-04-01T00:10:49;9.91;89.54
68912;SHT31;55953;51.650;-0.522;2023-04-01T00:13:18;9.90;89.41
68912;SHT31;55953;51.650;-0.522;2023-04-01T00:15:47;9.89;89.32
68912;SHT31;55953;51.650;-0.522;2023-04-01T00:18:16;9.88;89.38
68912;SHT31;55953;51.650;-0.522;2023-04-01T00:20:45;9.89;89.42
68912;SHT31;55953;51.650;-0.522;2023-04-01T00:23:16;9.88;89.42
68912;SHT31;55953;51.650;-0.522;2023-04-01T00:25:44;9.84;89.42
68912;SHT31;55953;51.650;-0.522;2023-04-01T00:28:14;9.83;89.47
68912;SHT31;55953;51.650;-0.522;2023-04-01T00:30:44;9.80;89.50
68912;SHT31;55953;51.650;-0.522;2023-04-01T00:33:13;9.78;89.60
68912;SHT31;55953;51.650;-0.522;2023-04-01T00:35:42;9.79;89.75
68912;SHT31;55953;51.650;-0.522;2023-04-01T00:38:10;9.78;89.72
68912;SHT31;55953;51.650;-0.522;2023-04-01T00:40:41;9.77;89.74
68912;SHT31;55953;51.650;-0.522;2023-04-01T00:43:13;9.72;89.82
68912;SHT31;55953;51.650;-0.522;2023-04-01T00:45:47;9.69;89.93
68912;SHT31;55953;51.650;-0.522;2023-04-01T00:48:17;9.68;90.03
68912;SHT31;55953;51.650;-0.522;2023-04-01T00:50:59;9.70;90.02
68912;SHT31;55953;51.650;-0.522;2023-04-01T00:53:30;9.70;89.99
68912;SHT31;55953;51.650;-0.522;2023-04-01T00:56:07;9.69;89.93
68912;SHT31;55953;51.650;-0.522;2023-04-01T00:58:41;9.67;90.07
68912;SHT31;55953;51.650;-0.522;2023-04-01T01:01:29;9.66;90.12
68912;SHT31;55953;51.650;-0.522;2023-04-01T01:03:58;9.65;90.18
68912;SHT31;55953;51.650;-0.522;2023-04-01T01:14:45;9.60;90.18
68912;SHT31;55953;51.650;-0.522;2023-04-01T01:35:29;9.41;89.74
68912;SHT31;55953;51.650;-0.522;2023-04-01T01:38:07;9.38;89.74
68912;SHT31;55953;51.650;-0.522;2023-04-01T01:40:45;9.34;89.68
68912;SHT31;55953;51.650;-0.522;2023-04-01T01:43:23;9.32;89.69
68912;SHT31;55953;51.650;-0.522;2023-04-01T01:45:58;9.31;89.82
68912;SHT31;55953;51.650;-0.522;2023-04-01T01:48:33;9.29;89.82
68912;SHT31;55953;51.650;-0.522;2023-04-01T01:51:05;9.27;89.83
68912;SHT31;55953;51.650;-0.522;2023-04-01T01:53:34;9.27;89.90
68912;SHT31;55953;51.650;-0.522;2023-04-01T01:56:03;9.25;89.87
68912;SHT31;55953;51.650;-0.522;2023-04-01T01:58:39;9.25;89.91
68912;SHT31;55953;51.650;-0.522;2023-04-01T02:01:21;9.27;89.95
68912;SHT31;55953;51.650;-0.522;2023-04-01T02:03:57;9.25;89.88
68912;SHT31;55953;51.650;-0.522;2023-04-01T02:06:28;9.23;89.88
68912;SHT31;55953;51.650;-0.522;2023-04-01T02:09:08;9.23;89.85
68912;SHT31;55953;51.650;-0.522;2023-04-01T02:11:57;9.24;89.85
68912;SHT31;55953;51.650;-0.522;2023-04-01T02:14:39;9.22;89.77
68912;SHT31;55953;51.650;-0.522;2023-04-01T02:17:28;9.20;89.75
68912;SHT31;55953;51.650;-0.522;2023-04-01T02:19:59;9.20;89.74
68912;SHT31;55953;51.650;-0.522;2023-04-01T02:22:39;9.19;89.76
68912;SHT31;55953;51.650;-0.522;2023-04-01T02:25:20;9.19;89.73
68912;SHT31;55953;51.650;-0.522;2023-04-01T02:27:58;9.19;89.77
68912;SHT31;55953;51.650;-0.522;2023-04-01T02:30:28;9.20;89.77
68912;SHT31;55953;51.650;-0.522;2023-04-01T02:32:59;9.19;89.80
68912;SHT31;55953;51.650;-0.522;2023-04-01T02:35:30;9.20;89.80
68912;SHT31;55953;51.650;-0.522;2023-04-01T02:38:04;9.20;89.81
68912;SHT31;55953;51.650;-0.522;2023-04-01T02:40:41;9.20;89.73
68912;SHT31;55953;51.650;-0.522;2023-04-01T02:43:15;9.20;89.79
68912;SHT31;55953;51.650;-0.522;2023-04-01T02:45:43;9.19;89.67
68912;SHT31;55953;51.650;-0.522;2023-04-01T02:48:11;9.19;89.66
68912;SHT31;55953;51.650;-0.522;2023-04-01T02:50:41;9.17;89.47
68912;SHT31;55953;51.650;-0.522;2023-04-01T02:53:09;9.14;89.51
68912;SHT31;55953;51.650;-0.522;2023-04-01T02:55:37;9.15;89.49
68912;SHT31;55953;51.650;-0.522;2023-04-01T02:58:05;9.14;89.52
68912;SHT31;55953;51.650;-0.522;2023-04-01T03:00:34;9.16;89.60
68912;SHT31;55953;51.650;-0.522;2023-04-01T03:03:02;9.18;89.61
68912;SHT31;55953;51.650;-0.522;2023-04-01T03:05:31;9.17;89.56
68912;SHT31;55953;51.650;-0.522;2023-04-01T03:07:59;9.16;89.42
68912;SHT31;55953;51.650;-0.522;2023-04-01T03:10:27;9.15;89.53
68912;SHT31;55953;51.650;-0.522;2023-04-01T03:12:55;9.15;89.56
68912;SHT31;55953;51.650;-0.522;2023-04-01T03:15:23;9.15;89.56
68912;SHT31;55953;51.650;-0.522;2023-04-01T03:17:51;9.16;89.64
68912;SHT31;55953;51.650;-0.522;2023-04-01T03:20:19;9.14;89.59
68912;SHT31;55953;51.650;-0.522;2023-04-01T03:22:47;9.15;89.65
68912;SHT31;55953;51.650;-0.522;2023-04-01T03:25:15;9.15;89.78
68912;SHT31;55953;51.650;-0.522;2023-04-01T03:27:43;9.14;89.60
68912;SHT31;55953;51.650;-0.522;2023-04-01T03:30:12;9.11;89.59
68912;SHT31;55953;51.650;-0.522;2023-04-01T03:32:45;9.10;89.61
68912;SHT31;55953;51.650;-0.522;2023-04-01T03:35:13;9.07;89.54
68912;SHT31;55953;51.650;-0.522;2023-04-01T03:37:42;9.06;89.53
68912;SHT31;55953;51.650;-0.522;2023-04-01T03:40:10;9.05;89.53
68912;SHT31;55953;51.650;-0.522;2023-04-01T03:42:39;9.02;89.48
68912;SHT31;55953;51.650;-0.522;2023-04-01T03:45:07;9.01;89.46
68912;SHT31;55953;51.650;-0.522;2023-04-01T03:47:36;9.00;89.36
68912;SHT31;55953;51.650;-0.522;2023-04-01T03:50:05;8.98;89.29
68912;SHT31;55953;51.650;-0.522;2023-04-01T03:52:34;8.95;89.29
68912;SHT31;55953;51.650;-0.522;2023-04-01T03:55:03;8.95;89.27
68912;SHT31;55953;51.650;-0.522;2023-04-01T03:57:31;8.93;89.27
68912;SHT31;55953;51.650;-0.522;2023-04-01T04:00:02;8.90;89.24
68912;SHT31;55953;51.650;-0.522;2023-04-01T04:02:40;8.90;89.28
68912;SHT31;55953;51.650;-0.522;2023-04-01T04:05:09;8.89;89.30
68912;SHT31;55953;51.650;-0.522;2023-04-01T04:07:37;8.85;89.11
68912;SHT31;55953;51.650;-0.522;2023-04-01T04:10:07;8.80;88.88
68912;SHT31;55953;51.650;-0.522;2023-04-01T04:12:36;8.79;88.94
68912;SHT31;55953;51.650;-0.522;2023-04-01T04:15:05;8.76;88.88
68912;SHT31;55953;51.650;-0.522;2023-04-01T04:17:36;8.73;89.03
68912;SHT31;55953;51.650;-0.522;2023-04-01T04:20:05;8.72;88.91
68912;SHT31;55953;51.650;-0.522;2023-04-01T04:22:35;8.69;89.03
68912;SHT31;55953;51.650;-0.522;2023-04-01T04:25:04;8.68;89.06
68912;SHT31;55953;51.650;-0.522;2023-04-01T04:27:33;8.68;89.05
68912;SHT31;55953;51.650;-0.522;2023-04-01T04:30:09;8.68;89.01
68912;SHT31;55953;51.650;-0.522;2023-04-01T04:32:38;8.65;88.84
68912;SHT31;55953;51.650;-0.522;2023-04-01T04:35:06;8.64;88.89
68912;SHT31;55953;51.650;-0.522;2023-04-01T04:37:35;8.65;88.96
68912;SHT31;55953;51.650;-0.522;2023-04-01T04:40:03;8.67;88.97
68912;SHT31;55953;51.650;-0.522;2023-04-01T04:42:32;8.65;88.76
68912;SHT31;55953;51.650;-0.522;2023-04-01T04:45:04;8.63;88.71
68912;SHT31;55953;51.650;-0.522;2023-04-01T04:47:33;8.64;88.81
68912;SHT31;55953;51.650;-0.522;2023-04-01T04:50:01;8.66;88.96
68912;SHT31;55953;51.650;-0.522;2023-04-01T04:52:29;8.66;88.87
68912;SHT31;55953;51.650;-0.522;2023-04-01T04:54:57;8.64;88.91
68912;SHT31;55953;51.650;-0.522;2023-04-01T04:57:25;8.63;89.01
68912;SHT31;55953;51.650;-0.522;2023-04-01T04:59:54;8.62;88.99
68912;SHT31;55953;51.650;-0.522;2023-04-01T05:02:40;8.62;89.05
68912;SHT31;55953;51.650;-0.522;2023-04-01T05:05:09;8.63;89.07
68912;SHT31;55953;51.650;-0.522;2023-04-01T05:07:37;8.64;89.00
68912;SHT31;55953;51.650;-0.522;2023-04-01T05:10:06;8.62;88.90
68912;SHT31;55953;51.650;-0.522;2023-04-01T05:12:34;8.60;88.93
68912;SHT31;55953;51.650;-0.522;2023-04-01T05:15:06;8.59;88.84
68912;SHT31;55953;51.650;-0.522;2023-04-01T05:17:34;8.57;88.99
68912;SHT31;55953;51.650;-0.522;2023-04-01T05:20:03;8.56;89.13
68912;SHT31;55953;51.650;-0.522;2023-04-01T05:22:32;8.55;89.13
68912;SHT31;55953;51.650;-0.522;2023-04-01T05:25:00;8.51;89.13
68912;SHT31;55953;51.650;-0.522;2023-04-01T05:27:28;8.52;89.15
68912;SHT31;55953;51.650;-0.522;2023-04-01T05:29:56;8.51;89.18
68912;SHT31;55953;51.650;-0.522;2023-04-01T05:32:40;8.50;89.18
68912;SHT31;55953;51.650;-0.522;2023-04-01T05:35:09;8.49;89.13
68912;SHT31;55953;51.650;-0.522;2023-04-01T05:37:37;8.47;89.13
68912;SHT31;55953;51.650;-0.522;2023-04-01T05:40:05;8.47;89.17
68912;SHT31;55953;51.650;-0.522;2023-04-01T05:42:34;8.47;89.27
68912;SHT31;55953;51.650;-0.522;2023-04-01T05:45:04;8.46;89.04
68912;SHT31;55953;51.650;-0.522;2023-04-01T05:48:05;8.48;89.20
68912;SHT31;55953;51.650;-0.522;2023-04-01T05:50:39;8.50;89.13
68912;SHT31;55953;51.650;-0.522;2023-04-01T05:53:09;8.50;89.12
68912;SHT31;55953;51.650;-0.522;2023-04-01T05:55:39;8.50;89.04
68912;SHT31;55953;51.650;-0.522;2023-04-01T05:58:07;8.49;89.03
68912;SHT31;55953;51.650;-0.522;2023-04-01T06:00:36;8.47;88.93
68912;SHT31;55953;51.650;-0.522;2023-04-01T06:03:04;8.48;89.07
68912;SHT31;55953;51.650;-0.522;2023-04-01T06:05:42;8.49;89.10
68912;SHT31;55953;51.650;-0.522;2023-04-01T06:08:15;8.46;88.78
68912;SHT31;55953;51.650;-0.522;2023-04-01T06:19:32;8.47;88.85
68912;SHT31;55953;51.650;-0.522;2023-04-01T06:22:31;8.47;88.68
68912;SHT31;55953;51.650;-0.522;2023-04-01T06:25:30;8.48;88.72
68912;SHT31;55953;51.650;-0.522;2023-04-01T06:28:22;8.48;88.60
68912;SHT31;55953;51.650;-0.522;2023-04-01T06:31:10;8.46;88.61
68912;SHT31;55953;51.650;-0.522;2023-04-01T06:40:32;8.43;88.63
68912;SHT31;55953;51.650;-0.522;2023-04-01T06:43:40;8.42;88.55
68912;SHT31;55953;51.650;-0.522;2023-04-01T06:46:43;8.49;88.81
68912;SHT31;55953;51.650;-0.522;2023-04-01T06:49:59;8.55;88.76
68912;SHT31;55953;51.650;-0.522;2023-04-01T07:01:57;8.52;88.20
68912;SHT31;55953;51.650;-0.522;2023-04-01T07:04:44;8.57;88.27
68912;SHT31;55953;51.650;-0.522;2023-04-01T07:10:11;8.65;88.33
68912;SHT31;55953;51.650;-0.522;2023-04-01T07:13:18;8.65;87.99
68912;SHT31;55953;51.650;-0.522;2023-04-01T07:15:58;8.71;88.07
68912;SHT31;55953;51.650;-0.522;2023-04-01T07:19:03;8.78;87.87
68912;SHT31;55953;51.650;-0.522;2023-04-01T07:21:59;8.80;87.67
68912;SHT31;55953;51.650;-0.522;2023-04-01T07:24:55;8.82;87.59
68912;SHT31;55953;51.650;-0.522;2023-04-01T07:27:32;8.89;87.75
68912;SHT31;55953;51.650;-0.522;2023-04-01T07:30:01;8.95;87.54
68912;SHT31;55953;51.650;-0.522;2023-04-01T07:32:40;8.91;86.84
68912;SHT31;55953;51.650;-0.522;2023-04-01T07:49:50;8.86;87.00
68912;SHT31;55953;51.650;-0.522;2023-04-01T07:55:50;8.85;86.74
68912;SHT31;55953;51.650;-0.522;2023-04-01T07:58:35;8.80;86.76
68912;SHT31;55953;51.650;-0.522;2023-04-01T08:02:06;8.75;86.71
68912;SHT31;55953;51.650;-0.522;2023-04-01T08:04:57;8.69;86.79
68912;SHT31;55953;51.650;-0.522;2023-04-01T08:17:09;8.72;87.11
68912;SHT31;55953;51.650;-0.522;2023-04-01T08:23:02;8.97;87.40
68912;SHT31;55953;51.650;-0.522;2023-04-01T08:26:19;9.09;86.89
68912;SHT31;55953;51.650;-0.522;2023-04-01T08:31:39;9.22;86.01
68912;SHT31;55953;51.650;-0.522;2023-04-01T08:34:20;9.34;86.22
68912;SHT31;55953;51.650;-0.522;2023-04-01T08:36:55;9.45;85.97
68912;SHT31;55953;51.650;-0.522;2023-04-01T08:39:34;9.52;85.77
68912;SHT31;55953;51.650;-0.522;2023-04-01T08:42:13;9.49;85.29
68912;SHT31;55953;51.650;-0.522;2023-04-01T08:45:26;9.45;85.09
68912;SHT31;55953;51.650;-0.522;2023-04-01T09:06:12;9.09;85.26
68912;SHT31;55953;51.650;-0.522;2023-04-01T09:16:05;8.97;86.46
68912;SHT31;55953;51.650;-0.522;2023-04-01T09:19:21;8.92;86.20
68912;SHT31;55953;51.650;-0.522;2023-04-01T09:36:37;9.30;85.09
68912;SHT31;55953;51.650;-0.522;2023-04-01T09:39:25;9.28;85.17
68912;SHT31;55953;51.650;-0.522;2023-04-01T09:42:15;9.34;85.18
68912;SHT31;55953;51.650;-0.522;2023-04-01T09:45:41;9.34;84.58
68912;SHT31;55953;51.650;-0.522;2023-04-01T09:51:40;9.42;84.93
68912;SHT31;55953;51.650;-0.522;2023-04-01T10:06:56;9.25;84.64
68912;SHT31;55953;51.650;-0.522;2023-04-01T10:49:48;10.69;80.08
68912;SHT31;55953;51.650;-0.522;2023-04-01T10:55:37;10.99;80.35
68912;SHT31;55953;51.650;-0.522;2023-04-01T11:11:33;11.53;78.29
68912;SHT31;55953;51.650;-0.522;2023-04-01T11:24:00;11.64;76.74
68912;SHT31;55953;51.650;-0.522;2023-04-01T11:26:40;11.66;77.77
68912;SHT31;55953;51.650;-0.522;2023-04-01T11:30:00;11.73;77.23
68912;SHT31;55953;51.650;-0.522;2023-04-01T11:35:55;11.96;76.03
68912;SHT31;55953;51.650;-0.522;2023-04-01T11:38:35;12.13;76.94
68912;SHT31;55953;51.650;-0.522;2023-04-01T11:51:14;12.01;75.20
68912;SHT31;55953;51.650;-0.522;2023-04-01T11:57:35;11.44;77.21
68912;SHT31;55953;51.650;-0.522;2023-04-01T12:03:51;11.78;77.80
68912;SHT31;55953;51.650;-0.522;2023-04-01T12:07:27;11.91;76.53
68912;SHT31;55953;51.650;-0.522;2023-04-01T12:13:01;11.89;75.64
68912;SHT31;55953;51.650;-0.522;2023-04-01T12:15:41;12.14;75.86
68912;SHT31;55953;51.650;-0.522;2023-04-01T12:21:24;12.15;73.56
68912;SHT31;55953;51.650;-0.522;2023-04-01T12:29:48;12.34;73.24
68912;SHT31;55953;51.650;-0.522;2023-04-01T12:32:30;12.37;73.47
68912;SHT31;55953;51.650;-0.522;2023-04-01T12:41:07;12.00;74.45
68912;SHT31;55953;51.650;-0.522;2023-04-01T12:44:28;11.84;74.74
68912;SHT31;55953;51.650;-0.522;2023-04-01T12:47:48;11.55;75.32
68912;SHT31;55953;51.650;-0.522;2023-04-01T13:06:19;11.87;74.29
68912;SHT31;55953;51.650;-0.522;2023-04-01T13:09:56;11.69;75.34
68912;SHT31;55953;51.650;-0.522;2023-04-01T13:15:23;11.63;76.11
68912;SHT31;55953;51.650;-0.522;2023-04-01T13:21:01;11.37;76.01
68912;SHT31;55953;51.650;-0.522;2023-04-01T13:24:02;11.28;76.30
68912;SHT31;55953;51.650;-0.522;2023-04-01T13:26:53;11.18;75.93
68912;SHT31;55953;51.650;-0.522;2023-04-01T13:36:01;11.31;74.55
68912;SHT31;55953;51.650;-0.522;2023-04-01T13:44:47;11.51;74.79
68912;SHT31;55953;51.650;-0.522;2023-04-01T13:48:24;11.43;74.26
68912;SHT31;55953;51.650;-0.522;2023-04-01T14:03:44;11.68;73.32
68912;SHT31;55953;51.650;-0.522;2023-04-01T14:07:23;11.65;73.16
68912;SHT31;55953;51.650;-0.522;2023-04-01T14:15:38;11.45;73.98
68912;SHT31;55953;51.650;-0.522;2023-04-01T14:21:51;11.15;74.12
68912;SHT31;55953;51.650;-0.522;2023-04-01T14:24:32;11.01;74.28
68912;SHT31;55953;51.650;-0.522;2023-04-01T14:30:14;11.01;74.39
68912;SHT31;55953;51.650;-0.522;2023-04-01T14:50:22;10.68;75.51
68912;SHT31;55953;51.650;-0.522;2023-04-01T14:55:55;10.55;75.63
68912;SHT31;55953;51.650;-0.522;2023-04-01T14:58:45;10.55;75.29
68912;SHT31;55953;51.650;-0.522;2023-04-01T15:04:36;10.54;75.05
68912;SHT31;55953;51.650;-0.522;2023-04-01T15:15:57;10.43;75.22
68912;SHT31;55953;51.650;-0.522;2023-04-01T15:18:41;10.30;74.94
68912;SHT31;55953;51.650;-0.522;2023-04-01T15:21:33;10.30;75.27
68912;SHT31;55953;51.650;-0.522;2023-04-01T15:27:10;10.18;75.20
68912;SHT31;55953;51.650;-0.522;2023-04-01T15:38:47;10.22;75.90
68912;SHT31;55953;51.650;-0.522;2023-04-01T15:41:28;10.24;75.73
68912;SHT31;55953;51.650;-0.522;2023-04-01T15:44:24;10.28;75.72
68912;SHT31;55953;51.650;-0.522;2023-04-01T15:47:08;10.27;75.21
68912;SHT31;55953;51.650;-0.522;2023-04-01T15:56:08;10.25;75.03
68912;SHT31;55953;51.650;-0.522;2023-04-01T16:13:35;10.02;75.94
68912;SHT31;55953;51.650;-0.522;2023-04-01T16:16:47;10.01;75.63
68912;SHT31;55953;51.650;-0.522;2023-04-01T16:23:02;10.05;75.48
68912;SHT31;55953;51.650;-0.522;2023-04-01T16:25:40;10.12;75.52
68912;SHT31;55953;51.650;-0.522;2023-04-01T16:28:24;10.11;75.46
68912;SHT31;55953;51.650;-0.522;2023-04-01T16:31:06;10.19;75.71
68912;SHT31;55953;51.650;-0.522;2023-04-01T16:34:02;10.22;75.60
68912;SHT31;55953;51.650;-0.522;2023-04-01T16:36:45;10.16;75.03
68912;SHT31;55953;51.650;-0.522;2023-04-01T16:47:36;10.04;75.05
68912;SHT31;55953;51.650;-0.522;2023-04-01T16:56:11;9.89;73.93
68912;SHT31;55953;51.650;-0.522;2023-04-01T16:58:57;9.93;73.96
68912;SHT31;55953;51.650;-0.522;2023-04-01T17:01:40;9.94;73.58
68912;SHT31;55953;51.650;-0.522;2023-04-01T17:37:04;9.76;73.77
68912;SHT31;55953;51.650;-0.522;2023-04-01T17:39:42;9.74;73.96
68912;SHT31;55953;51.650;-0.522;2023-04-01T17:42:46;9.75;73.83
68912;SHT31;55953;51.650;-0.522;2023-04-01T17:46:55;9.74;73.65
68912;SHT31;55953;51.650;-0.522;2023-04-01T18:24:35;9.56;72.94
68912;SHT31;55953;51.650;-0.522;2023-04-01T18:27:17;9.58;73.21
68912;SHT31;55953;51.650;-0.522;2023-04-01T18:39:13;9.53;72.91
68912;SHT31;55953;51.650;-0.522;2023-04-01T18:44:55;9.54;73.11
68912;SHT31;55953;51.650;-0.522;2023-04-01T18:47:41;9.54;73.03
68912;SHT31;55953;51.650;-0.522;2023-04-01T18:56:38;9.51;73.54
68912;SHT31;55953;51.650;-0.522;2023-04-01T19:07:40;9.44;74.43
68912;SHT31;55953;51.650;-0.522;2023-04-01T19:10:37;9.41;74.85
68912;SHT31;55953;51.650;-0.522;2023-04-01T19:37:37;9.27;77.15
68912;SHT31;55953;51.650;-0.522;2023-04-01T19:46:14;9.20;77.98
68912;SHT31;55953;51.650;-0.522;2023-04-01T19:49:14;9.15;78.61
68912;SHT31;55953;51.650;-0.522;2023-04-01T19:58:06;8.75;83.02
68912;SHT31;55953;51.650;-0.522;2023-04-01T20:00:59;8.62;83.62
68912;SHT31;55953;51.650;-0.522;2023-04-01T20:03:42;8.55;84.21
68912;SHT31;55953;51.650;-0.522;2023-04-01T20:15:03;8.34;85.81
68912;SHT31;55953;51.650;-0.522;2023-04-01T20:17:51;8.39;85.70
68912;SHT31;55953;51.650;-0.522;2023-04-01T20:20:26;8.35;86.32
68912;SHT31;55953;51.650;-0.522;2023-04-01T20:37:23;8.35;85.06
68912;SHT31;55953;51.650;-0.522;2023-04-01T20:46:20;8.26;84.98
68912;SHT31;55953;51.650;-0.522;2023-04-01T20:49:20;8.16;85.47
68912;SHT31;55953;51.650;-0.522;2023-04-01T21:18:23;7.93;85.70
68912;SHT31;55953;51.650;-0.522;2023-04-01T21:27:41;7.94;84.87
68912;SHT31;55953;51.650;-0.522;2023-04-01T21:45:44;7.89;83.23
68912;SHT31;55953;51.650;-0.522;2023-04-01T22:09:16;7.93;82.43
68912;SHT31;55953;51.650;-0.522;2023-04-01T22:14:34;7.97;82.33
68912;SHT31;55953;51.650;-0.522;2023-04-01T22:31:42;7.89;82.63
68912;SHT31;55953;51.650;-0.522;2023-04-01T22:37:20;7.82;81.98
68912;SHT31;55953;51.650;-0.522;2023-04-01T22:43:13;7.75;81.95
68912;SHT31;55953;51.650;-0.522;2023-04-01T22:48:30;7.76;81.97
68912;SHT31;55953;51.650;-0.522;2023-04-01T22:51:18;7.75;82.04
68912;SHT31;55953;51.650;-0.522;2023-04-01T22:54:08;7.75;82.17
68912;SHT31;55953;51.650;-0.522;2023-04-01T22:57:03;7.75;82.08
68912;SHT31;55953;51.650;-0.522;2023-04-01T23:03:08;7.73;81.93
68912;SHT31;55953;51.650;-0.522;2023-04-01T23:05:53;7.73;82.00
68912;SHT31;55953;51.650;-0.522;2023-04-01T23:14:39;7.71;81.82
68912;SHT31;55953;51.650;-0.522;2023-04-01T23:17:34;7.71;81.85
68912;SHT31;55953;51.650;-0.522;2023-04-01T23:25:30;7.71;82.18
68912;SHT31;55953;51.650;-0.522;2023-04-01T23:38:40;7.55;82.26
68912;SHT31;55953;51.650;-0.522;2023-04-01T23:41:16;7.53;82.34
68912;SHT31;55953;51.650;-0.522;2023-04-01T23:44:05;7.53;82.27
68912;SHT31;55953;51.650;-0.522;2023-04-01T23:46:39;7.55;82.50
68912;SHT31;55953;51.650;-0.522;2023-04-01T23:49:14;7.53;82.75
68912;SHT31;55953;51.650;-0.522;2023-04-01T23:51:53;7.51;83.38
68912;SHT31;55953;51.650;-0.522;2023-04-01T23:54:33;7.41;84.19
68912;SHT31;55953;51.650;-0.522;2023-04-01T23:57:13;7.35;84.70
68912;SHT31;55953;51.650;-0.522;2023-04-01T23:59:47;7.33;85.06
